sensor_id;sensor_type;location;lat;lon;timestamp;pressure;altitude;pressure_sealevel;temperature;humidity
32324;BME280;25666;44.350;9.222;2024-02-04T00:01:40;102821.84;;;10.33;100.00
32324;BME280;25666;44.350;9.222;2024-02-04T00:04:06;102817.34;;;10.37;100.00
32324;BME280;25666;44.350;9.222;2024-02-04T00:06:31;102816.16;;;10.43;100.00
32324;BME280;25666;44.350;9.222;2024-02-04T00:08:57;102813.19;;;10.34;100.00
32324;BME280;25666;44.350;9.222;2024-02-04T00:11:22;102810.97;;;10.36;100.00
32324;BME280;25666;44.350;9.222;2024-02-04T00:13:48;102809.88;;;10.32;100.00
32324;BME280;25666;44.350;9.222;2024-02-04T00:16:14;102806.44;;;10.40;100.00
32324;BME280;25666;44.350;9.222;2024-02-04T00:18:39;102802.66;;;10.31;100.00
32324;BME280;25666;44.350;9.222;2024-02-04T00:21:05;102799.50;;;10.38;100.00
32324;BME280;25666;44.350;9.222;2024-02-04T00:23:30;102803.97;;;10.39;100.00
32324;BME280;25666;44.350;9.222;2024-02-04T00:25:56;102809.28;;;10.35;100.00
32324;BME280;25666;44.350;9.222;2024-02-04T00:28:22;102799.22;;;10.39;100.00
32324;BME280;25666;44.350;9.222;2024-02-04T00:30:48;102806.38;;;10.45;100.00
32324;BME280;25666;44.350;9.222;2024-02-04T00:33:15;102811.72;;;10.42;100.00
32324;BME280;25666;44.350;9.222;2024-02-04T00:35:41;102811.19;;;10.40;100.00
32324;BME280;25666;44.350;9.222;2024-02-04T00:38:07;102807.81;;;10.43;100.00
32324;BME280;25666;44.350;9.222;2024-02-04T00:40:34;102807.38;;;10.31;100.00
32324;BME280;25666;44.350;9.222;2024-02-04T00:43:00;102797.16;;;10.26;100.00
32324;BME280;25666;44.350;9.222;2024-02-04T00:45:26;102796.13;;;10.41;100.00
32324;BME280;25666;44.350;9.222;2024-02-04T00:47:51;102787.13;;;10.49;100.00
32324;BME280;25666;44.350;9.222;2024-02-04T00:50:17;102797.06;;;10.55;100.00
32324;BME280;25666;44.350;9.222;2024-02-04T00:52:43;102791.91;;;10.43;100.00
32324;BME280;25666;44.350;9.222;2024-02-04T00:55:09;102788.16;;;10.53;100.00
32324;BME280;25666;44.350;9.222;2024-02-04T00:57:34;102790.06;;;10.57;100.00
32324;BME280;25666;44.350;9.222;2024-02-04T01:00:00;102787.63;;;10.51;100.00
32324;BME280;25666;44.350;9.222;2024-02-04T01:02:26;102782.59;;;10.53;100.00
32324;BME280;25666;44.350;9.222;2024-02-04T01:04:51;102775.66;;;10.50;100.00
32324;BME280;25666;44.350;9.222;2024-02-04T01:07:17;102776.63;;;10.41;100.00
32324;BME280;25666;44.350;9.222;2024-02-04T01:09:43;102783.19;;;10.50;100.00
32324;BME280;25666;44.350;9.222;2024-02-04T01:12:09;102773.19;;;10.49;100.00
32324;BME280;25666;44.350;9.222;2024-02-04T01:14:34;102777.34;;;10.51;100.00
32324;BME280;25666;44.350;9.222;2024-02-04T01:17:00;102767.84;;;10.52;100.00
32324;BME280;25666;44.350;9.222;2024-02-04T01:19:25;102771.75;;;10.51;100.00
32324;BME280;25666;44.350;9.222;2024-02-04T01:21:51;102778.75;;;10.49;100.00
32324;BME280;25666;44.350;9.222;2024-02-04T01:24:17;102775.06;;;10.53;100.00
32324;BME280;25666;44.350;9.222;2024-02-04T01:26:42;102781.19;;;10.55;100.00
32324;BME280;25666;44.350;9.222;2024-02-04T01:29:08;102788.38;;;10.56;100.00
32324;BME280;25666;44.350;9.222;2024-02-04T01:31:33;102774.59;;;10.46;100.00
32324;BME280;25666;44.350;9.222;2024-02-04T01:33:59;102777.00;;;10.53;100.00
32324;BME280;25666;44.350;9.222;2024-02-04T01:36:25;102777.94;;;10.48;100.00
32324;BME280;25666;44.350;9.222;2024-02-04T01:38:50;102781.78;;;10.52;100.00
32324;BME280;25666;44.350;9.222;2024-02-04T01:41:16;102778.31;;;10.60;100.00
32324;BME280;25666;44.350;9.222;2024-02-04T01:43:42;102780.78;;;10.62;100.00
32324;BME280;25666;44.350;9.222;2024-02-04T01:46:08;102776.72;;;10.54;100.00
32324;BME280;25666;44.350;9.222;2024-02-04T01:48:34;102783.97;;;10.55;100.00
32324;BME280;25666;44.350;9.222;2024-02-04T01:51:00;102779.97;;;10.61;100.00
32324;BME280;25666;44.350;9.222;2024-02-04T01:53:28;102783.50;;;10.67;100.00
32324;BME280;25666;44.350;9.222;2024-02-04T01:55:54;102783.00;;;10.65;100.00
32324;BME280;25666;44.350;9.222;2024-02-04T01:58:22;102779.13;;;10.61;100.00
32324;BME280;25666;44.350;9.222;2024-02-04T02:00:49;102773.84;;;10.59;100.00
32324;BME280;25666;44.350;9.222;2024-02-04T02:03:15;102780.19;;;10.65;100.00
32324;BME280;25666;44.350;9.222;2024-02-04T02:05:41;102774.09;;;10.63;100.00
32324;BME280;25666;44.350;9.222;2024-02-04T02:08:07;102771.84;;;10.65;100.00
32324;BME280;25666;44.350;9.222;2024-02-04T02:10:33;102773.94;;;10.54;100.00
32324;BME280;25666;44.350;9.222;2024-02-04T02:13:04;102771.31;;;10.63;100.00
32324;BME280;25666;44.350;9.222;2024-02-04T02:15:35;102772.38;;;10.67;100.00
32324;BME280;25666;44.350;9.222;2024-02-04T02:18:06;102771.84;;;10.65;100.00
32324;BME280;25666;44.350;9.222;2024-02-04T02:23:35;102764.84;;;10.67;100.00
32324;BME280;25666;44.350;9.222;2024-02-04T02:26:02;102767.41;;;10.64;100.00
32324;BME280;25666;44.350;9.222;2024-02-04T02:28:29;102768.00;;;10.61;100.00
32324;BME280;25666;44.350;9.222;2024-02-04T02:30:55;102766.28;;;10.65;100.00
32324;BME280;25666;44.350;9.222;2024-02-04T02:33:20;102768.97;;;10.70;100.00
32324;BME280;25666;44.350;9.222;2024-02-04T02:35:51;102776.72;;;10.73;100.00
32324;BME280;25666;44.350;9.222;2024-02-04T02:38:31;102785.69;;;10.70;100.00
32324;BME280;25666;44.350;9.222;2024-02-04T02:41:00;102779.59;;;10.68;100.00
32324;BME280;25666;44.350;9.222;2024-02-04T02:43:29;102775.81;;;10.59;100.00
32324;BME280;25666;44.350;9.222;2024-02-04T02:45:56;102762.34;;;10.66;100.00
32324;BME280;25666;44.350;9.222;2024-02-04T02:48:23;102757.94;;;10.65;100.00
32324;BME280;25666;44.350;9.222;2024-02-04T02:50:50;102753.38;;;10.69;100.00
32324;BME280;25666;44.350;9.222;2024-02-04T02:53:15;102741.13;;;10.70;100.00
32324;BME280;25666;44.350;9.222;2024-02-04T02:55:44;102741.34;;;10.73;100.00
32324;BME280;25666;44.350;9.222;2024-02-04T02:58:13;102746.47;;;10.66;100.00
32324;BME280;25666;44.350;9.222;2024-02-04T03:00:39;102745.41;;;10.62;100.00
32324;BME280;25666;44.350;9.222;2024-02-04T03:03:05;102738.94;;;10.67;100.00
32324;BME280;25666;44.350;9.222;2024-02-04T03:05:31;102742.69;;;10.76;100.00
32324;BME280;25666;44.350;9.222;2024-02-04T03:07:57;102741.56;;;10.77;100.00
32324;BME280;25666;44.350;9.222;2024-02-04T03:10:22;102731.41;;;10.67;100.00
32324;BME280;25666;44.350;9.222;2024-02-04T03:12:48;102730.50;;;10.72;100.00
32324;BME280;25666;44.350;9.222;2024-02-04T03:15:14;102728.53;;;10.72;100.00
32324;BME280;25666;44.350;9.222;2024-02-04T03:17:39;102719.91;;;10.74;100.00
32324;BME280;25666;44.350;9.222;2024-02-04T03:20:06;102717.56;;;10.62;100.00
32324;BME280;25666;44.350;9.222;2024-02-04T03:22:32;102717.66;;;10.57;100.00
32324;BME280;25666;44.350;9.222;2024-02-04T03:24:57;102718.31;;;10.68;100.00
32324;BME280;25666;44.350;9.222;2024-02-04T03:27:23;102712.34;;;10.74;100.00
32324;BME280;25666;44.350;9.222;2024-02-04T03:29:49;102712.44;;;10.69;100.00
32324;BME280;25666;44.350;9.222;2024-02-04T03:32:14;102707.38;;;10.71;100.00
32324;BME280;25666;44.350;9.222;2024-02-04T03:34:43;102706.25;;;10.72;100.00
32324;BME280;25666;44.350;9.222;2024-02-04T03:37:10;102704.69;;;10.66;100.00
32324;BME280;25666;44.350;9.222;2024-02-04T03:39:36;102718.09;;;10.64;100.00
32324;BME280;25666;44.350;9.222;2024-02-04T03:42:01;102716.16;;;10.65;100.00
32324;BME280;25666;44.350;9.222;2024-02-04T03:44:27;102721.91;;;10.68;100.00
32324;BME280;25666;44.350;9.222;2024-02-04T03:46:52;102719.97;;;10.69;100.00
32324;BME280;25666;44.350;9.222;2024-02-04T03:49:18;102716.34;;;10.68;100.00
32324;BME280;25666;44.350;9.222;2024-02-04T03:51:44;102702.13;;;10.70;100.00
32324;BME280;25666;44.350;9.222;2024-02-04T03:54:09;102693.69;;;10.75;100.00
32324;BME280;25666;44.350;9.222;2024-02-04T03:56:35;102685.09;;;10.71;100.00
32324;BME280;25666;44.350;9.222;2024-02-04T03:59:01;102697.16;;;10.67;100.00
32324;BME280;25666;44.350;9.222;2024-02-04T04:01:27;102694.59;;;10.70;100.00
32324;BME280;25666;44.350;9.222;2024-02-04T04:03:52;102685.25;;;10.80;100.00
32324;BME280;25666;44.350;9.222;2024-02-04T04:06:18;102674.94;;;10.81;100.00
32324;BME280;25666;44.350;9.222;2024-02-04T04:08:43;102667.09;;;10.83;100.00
32324;BME280;25666;44.350;9.222;2024-02-04T04:11:10;102672.44;;;10.79;100.00
32324;BME280;25666;44.350;9.222;2024-02-04T04:13:37;102680.59;;;10.75;100.00
32324;BME280;25666;44.350;9.222;2024-02-04T04:16:03;102686.88;;;10.81;100.00
32324;BME280;25666;44.350;9.222;2024-02-04T04:18:29;102672.16;;;10.81;100.00
32324;BME280;25666;44.350;9.222;2024-02-04T04:20:55;102672.06;;;10.86;100.00
32324;BME280;25666;44.350;9.222;2024-02-04T04:23:21;102682.06;;;10.87;100.00
32324;BME280;25666;44.350;9.222;2024-02-04T04:25:46;102660.47;;;10.79;100.00
32324;BME280;25666;44.350;9.222;2024-02-04T04:28:12;102667.38;;;10.81;100.00
32324;BME280;25666;44.350;9.222;2024-02-04T04:30:38;102679.25;;;10.73;100.00
32324;BME280;25666;44.350;9.222;2024-02-04T04:33:03;102685.31;;;10.75;100.00
32324;BME280;25666;44.350;9.222;2024-02-04T04:35:29;102675.53;;;10.77;100.00
32324;BME280;25666;44.350;9.222;2024-02-04T04:37:55;102684.31;;;10.71;100.00
32324;BME280;25666;44.350;9.222;2024-02-04T04:40:21;102671.72;;;10.73;100.00
32324;BME280;25666;44.350;9.222;2024-02-04T04:42:46;102670.28;;;10.76;100.00
32324;BME280;25666;44.350;9.222;2024-02-04T04:45:12;102665.53;;;10.77;100.00
32324;BME280;25666;44.350;9.222;2024-02-04T04:47:37;102663.59;;;10.77;100.00
32324;BME280;25666;44.350;9.222;2024-02-04T04:50:05;102660.47;;;10.79;100.00
32324;BME280;25666;44.350;9.222;2024-02-04T04:52:31;102667.38;;;10.81;100.00
32324;BME280;25666;44.350;9.222;2024-02-04T04:54:57;102658.00;;;10.77;100.00
32324;BME280;25666;44.350;9.222;2024-02-04T04:57:23;102646.88;;;10.77;100.00
32324;BME280;25666;44.350;9.222;2024-02-04T04:59:48;102642.94;;;10.78;100.00
32324;BME280;25666;44.350;9.222;2024-02-04T05:02:14;102624.81;;;10.81;100.00
32324;BME280;25666;44.350;9.222;2024-02-04T05:04:43;102630.38;;;10.81;100.00
32324;BME280;25666;44.350;9.222;2024-02-04T05:07:10;102642.09;;;10.64;100.00
32324;BME280;25666;44.350;9.222;2024-02-04T05:09:35;102640.84;;;10.70;100.00
32324;BME280;25666;44.350;9.222;2024-02-04T05:12:02;102631.78;;;10.78;100.00
32324;BME280;25666;44.350;9.222;2024-02-04T05:14:28;102643.25;;;10.77;100.00
32324;BME280;25666;44.350;9.222;2024-02-04T05:16:53;102658.47;;;10.65;100.00
32324;BME280;25666;44.350;9.222;2024-02-04T05:19:19;102644.88;;;10.77;100.00
32324;BME280;25666;44.350;9.222;2024-02-04T05:21:44;102643.75;;;10.79;100.00
32324;BME280;25666;44.350;9.222;2024-02-04T05:24:10;102640.38;;;10.82;100.00
32324;BME280;25666;44.350;9.222;2024-02-04T05:26:36;102645.38;;;10.66;100.00
32324;BME280;25666;44.350;9.222;2024-02-04T05:29:02;102650.56;;;10.72;100.00
32324;BME280;25666;44.350;9.222;2024-02-04T05:31:27;102656.25;;;10.81;100.00
32324;BME280;25666;44.350;9.222;2024-02-04T05:33:53;102660.47;;;10.79;100.00
32324;BME280;25666;44.350;9.222;2024-02-04T05:36:18;102668.31;;;10.77;100.00
32324;BME280;25666;44.350;9.222;2024-02-04T05:38:45;102686.16;;;10.75;100.00
32324;BME280;25666;44.350;9.222;2024-02-04T05:41:10;102691.94;;;10.79;100.00
32324;BME280;25666;44.350;9.222;2024-02-04T05:43:36;102688.44;;;10.87;100.00
32324;BME280;25666;44.350;9.222;2024-02-04T05:46:02;102683.84;;;10.96;100.00
32324;BME280;25666;44.350;9.222;2024-02-04T05:48:27;102673.44;;;11.02;100.00
32324;BME280;25666;44.350;9.222;2024-02-04T05:50:53;102666.84;;;11.11;100.00
32324;BME280;25666;44.350;9.222;2024-02-04T05:53:19;102678.00;;;11.11;100.00
32324;BME280;25666;44.350;9.222;2024-02-04T05:55:44;102682.44;;;11.12;100.00
32324;BME280;25666;44.350;9.222;2024-02-04T05:58:10;102689.88;;;11.17;100.00
32324;BME280;25666;44.350;9.222;2024-02-04T06:00:36;102694.63;;;11.16;100.00
32324;BME280;25666;44.350;9.222;2024-02-04T06:03:01;102695.13;;;11.18;100.00
32324;BME280;25666;44.350;9.222;2024-02-04T06:05:27;102695.34;;;11.22;100.00
32324;BME280;25666;44.350;9.222;2024-02-04T06:07:52;102683.78;;;11.28;100.00
32324;BME280;25666;44.350;9.222;2024-02-04T06:10:18;102673.28;;;11.39;100.00
32324;BME280;25666;44.350;9.222;2024-02-04T06:12:44;102662.09;;;11.53;100.00
32324;BME280;25666;44.350;9.222;2024-02-04T06:15:14;102667.31;;;11.46;100.00
32324;BME280;25666;44.350;9.222;2024-02-04T06:17:40;102691.25;;;11.33;100.00
32324;BME280;25666;44.350;9.222;2024-02-04T06:20:06;102709.91;;;11.19;100.00
32324;BME280;25666;44.350;9.222;2024-02-04T06:22:33;102707.66;;;11.21;100.00
32324;BME280;25666;44.350;9.222;2024-02-04T06:24:59;102713.34;;;11.29;100.00
32324;BME280;25666;44.350;9.222;2024-02-04T06:27:24;102715.50;;;11.33;100.00
32324;BME280;25666;44.350;9.222;2024-02-04T06:29:50;102702.06;;;11.35;100.00
32324;BME280;25666;44.350;9.222;2024-02-04T06:32:16;102704.38;;;11.46;100.00
32324;BME280;25666;44.350;9.222;2024-02-04T06:34:42;102715.00;;;11.31;100.00
32324;BME280;25666;44.350;9.222;2024-02-04T06:37:07;102708.25;;;11.32;100.00
32324;BME280;25666;44.350;9.222;2024-02-04T06:39:33;102721.59;;;11.35;100.00
32324;BME280;25666;44.350;9.222;2024-02-04T06:41:58;102731.19;;;11.15;100.00
32324;BME280;25666;44.350;9.222;2024-02-04T06:44:24;102731.06;;;10.88;100.00
32324;BME280;25666;44.350;9.222;2024-02-04T06:46:49;102733.63;;;10.84;100.00
32324;BME280;25666;44.350;9.222;2024-02-04T06:49:15;102728.94;;;10.98;100.00
32324;BME280;25666;44.350;9.222;2024-02-04T06:51:43;102732.38;;;11.09;100.00
32324;BME280;25666;44.350;9.222;2024-02-04T06:54:10;102732.09;;;11.10;100.00
32324;BME280;25666;44.350;9.222;2024-02-04T06:56:35;102739.03;;;10.94;100.00
32324;BME280;25666;44.350;9.222;2024-02-04T06:59:02;102741.00;;;10.94;100.00
32324;BME280;25666;44.350;9.222;2024-02-04T07:01:27;102739.38;;;11.06;100.00
32324;BME280;25666;44.350;9.222;2024-02-04T07:03:53;102739.59;;;11.10;100.00
32324;BME280;25666;44.350;9.222;2024-02-04T07:06:19;102732.38;;;11.09;100.00
32324;BME280;25666;44.350;9.222;2024-02-04T07:08:44;102743.00;;;11.07;100.00
32324;BME280;25666;44.350;9.222;2024-02-04T07:11:10;102740.09;;;10.98;100.00
32324;BME280;25666;44.350;9.222;2024-02-04T07:13:35;102739.38;;;11.06;100.00
32324;BME280;25666;44.350;9.222;2024-02-04T07:16:01;102745.13;;;11.15;100.00
32324;BME280;25666;44.350;9.222;2024-02-04T07:18:26;102740.44;;;11.10;100.00
32324;BME280;25666;44.350;9.222;2024-02-04T07:20:52;102747.91;;;11.15;100.00
32324;BME280;25666;44.350;9.222;2024-02-04T07:23:17;102753.94;;;11.03;100.00
32324;BME280;25666;44.350;9.222;2024-02-04T07:25:43;102758.81;;;11.11;100.00
32324;BME280;25666;44.350;9.222;2024-02-04T07:28:08;102755.31;;;11.19;100.00
32324;BME280;25666;44.350;9.222;2024-02-04T07:30:34;102757.66;;;11.12;100.00
32324;BME280;25666;44.350;9.222;2024-02-04T07:32:59;102758.00;;;11.11;100.00
32324;BME280;25666;44.350;9.222;2024-02-04T07:35:25;102763.69;;;11.19;100.00
32324;BME280;25666;44.350;9.222;2024-02-04T07:37:51;102763.59;;;11.24;100.00
32324;BME280;25666;44.350;9.222;2024-02-04T07:40:16;102761.25;;;11.32;100.00
32324;BME280;25666;44.350;9.222;2024-02-04T07:42:42;102755.03;;;11.35;100.00
32324;BME280;25666;44.350;9.222;2024-02-04T07:45:08;102765.28;;;11.39;100.00
32324;BME280;25666;44.350;9.222;2024-02-04T07:47:35;102767.75;;;11.41;100.00
32324;BME280;25666;44.350;9.222;2024-02-04T07:50:01;102766.34;;;11.43;100.00
32324;BME280;25666;44.350;9.222;2024-02-04T07:52:27;102765.13;;;11.49;100.00
32324;BME280;25666;44.350;9.222;2024-02-04T07:54:52;102756.94;;;11.53;100.00
32324;BME280;25666;44.350;9.222;2024-02-04T07:57:18;102756.03;;;11.57;100.00
32324;BME280;25666;44.350;9.222;2024-02-04T07:59:43;102763.13;;;11.50;100.00
32324;BME280;25666;44.350;9.222;2024-02-04T08:02:09;102765.00;;;11.54;100.00
32324;BME280;25666;44.350;9.222;2024-02-04T08:04:34;102766.34;;;11.57;100.00
32324;BME280;25666;44.350;9.222;2024-02-04T08:07:00;102758.31;;;11.55;100.00
32324;BME280;25666;44.350;9.222;2024-02-04T08:09:25;102753.22;;;11.57;100.00
32324;BME280;25666;44.350;9.222;2024-02-04T08:11:51;102765.56;;;11.70;100.00
32324;BME280;25666;44.350;9.222;2024-02-04T08:14:17;102761.81;;;11.61;100.00
32324;BME280;25666;44.350;9.222;2024-02-04T08:16:43;102762.03;;;11.64;100.00
32324;BME280;25666;44.350;9.222;2024-02-04T08:19:11;102763.66;;;11.65;100.00
32324;BME280;25666;44.350;9.222;2024-02-04T08:21:37;102769.06;;;11.75;100.00
32324;BME280;25666;44.350;9.222;2024-02-04T08:24:03;102771.88;;;11.75;100.00
32324;BME280;25666;44.350;9.222;2024-02-04T08:26:28;102770.41;;;11.78;100.00
32324;BME280;25666;44.350;9.222;2024-02-04T08:28:54;102768.78;;;11.77;100.00
32324;BME280;25666;44.350;9.222;2024-02-04T08:31:19;102779.00;;;11.81;100.00
32324;BME280;25666;44.350;9.222;2024-02-04T08:33:46;102781.16;;;11.85;100.00
32324;BME280;25666;44.350;9.222;2024-02-04T08:36:12;102777.88;;;11.96;100.00
32324;BME280;25666;44.350;9.222;2024-02-04T08:38:37;102785.31;;;12.01;100.00
32324;BME280;25666;44.350;9.222;2024-02-04T08:41:03;102786.34;;;12.05;100.00
32324;BME280;25666;44.350;9.222;2024-02-04T08:43:29;102778.47;;;12.07;100.00
32324;BME280;25666;44.350;9.222;2024-02-04T08:45:55;102775.78;;;12.15;100.00
32324;BME280;25666;44.350;9.222;2024-02-04T08:48:20;102779.19;;;12.12;100.00
32324;BME280;25666;44.350;9.222;2024-02-04T08:50:46;102785.09;;;12.11;100.00
32324;BME280;25666;44.350;9.222;2024-02-04T08:53:12;102789.44;;;12.17;100.00
32324;BME280;25666;44.350;9.222;2024-02-04T08:55:37;102779.72;;;12.14;100.00
32324;BME280;25666;44.350;9.222;2024-02-04T08:58:03;102771.16;;;12.24;100.00
32324;BME280;25666;44.350;9.222;2024-02-04T09:00:29;102777.31;;;12.35;100.00
32324;BME280;25666;44.350;9.222;2024-02-04T09:02:54;102780.50;;;12.42;100.00
32324;BME280;25666;44.350;9.222;2024-02-04T09:05:20;102780.31;;;12.39;100.00
32324;BME280;25666;44.350;9.222;2024-02-04T09:07:46;102778.03;;;12.41;100.00
32324;BME280;25666;44.350;9.222;2024-02-04T09:10:11;102777.91;;;12.46;100.00
32324;BME280;25666;44.350;9.222;2024-02-04T09:12:38;102779.25;;;12.48;100.00
32324;BME280;25666;44.350;9.222;2024-02-04T09:15:04;102781.28;;;12.56;100.00
32324;BME280;25666;44.350;9.222;2024-02-04T09:17:31;102773.25;;;12.55;100.00
32324;BME280;25666;44.350;9.222;2024-02-04T09:19:59;102775.34;;;12.49;100.00
32324;BME280;25666;44.350;9.222;2024-02-04T09:22:24;102773.25;;;12.55;100.00
32324;BME280;25666;44.350;9.222;2024-02-04T09:24:50;102780.38;;;12.61;100.00
32324;BME280;25666;44.350;9.222;2024-02-04T09:27:16;102785.59;;;12.76;100.00
32324;BME280;25666;44.350;9.222;2024-02-04T09:29:41;102786.81;;;12.83;100.00
32324;BME280;25666;44.350;9.222;2024-02-04T09:32:07;102782.75;;;12.89;100.00
32324;BME280;25666;44.350;9.222;2024-02-04T09:34:33;102783.88;;;12.88;100.00
32324;BME280;25666;44.350;9.222;2024-02-04T09:36:58;102788.09;;;13.00;100.00
32324;BME280;25666;44.350;9.222;2024-02-04T09:39:24;102786.00;;;13.05;100.00
32324;BME280;25666;44.350;9.222;2024-02-04T09:41:50;102792.50;;;13.14;100.00
32324;BME280;25666;44.350;9.222;2024-02-04T09:44:15;102803.25;;;13.21;100.00
32324;BME280;25666;44.350;9.222;2024-02-04T09:46:42;102801.97;;;13.27;100.00
32324;BME280;25666;44.350;9.222;2024-02-04T09:49:08;102799.03;;;13.32;100.00
32324;BME280;25666;44.350;9.222;2024-02-04T09:51:34;102797.13;;;13.41;100.00
32324;BME280;25666;44.350;9.222;2024-02-04T09:54:03;102799.66;;;13.51;100.00
32324;BME280;25666;44.350;9.222;2024-02-04T09:56:33;102801.97;;;13.49;100.00
32324;BME280;25666;44.350;9.222;2024-02-04T09:59:00;102797.78;;;13.69;100.00
32324;BME280;25666;44.350;9.222;2024-02-04T10:01:26;102799.34;;;13.83;100.00
32324;BME280;25666;44.350;9.222;2024-02-04T10:03:52;102800.69;;;13.94;100.00
32324;BME280;25666;44.350;9.222;2024-02-04T10:06:17;102799.91;;;14.03;100.00
32324;BME280;25666;44.350;9.222;2024-02-04T10:08:43;102800.13;;;14.15;100.00
32324;BME280;25666;44.350;9.222;2024-02-04T10:11:09;102803.22;;;14.13;100.00
32324;BME280;25666;44.350;9.222;2024-02-04T10:13:45;102807.03;;;14.17;100.00
32324;BME280;25666;44.350;9.222;2024-02-04T10:16:12;102808.75;;;14.35;100.00
32324;BME280;25666;44.350;9.222;2024-02-04T10:18:42;102802.84;;;14.37;100.00
32324;BME280;25666;44.350;9.222;2024-02-04T10:21:18;102803.69;;;14.46;100.00
32324;BME280;25666;44.350;9.222;2024-02-04T10:23:48;102815.53;;;14.43;100.00
32324;BME280;25666;44.350;9.222;2024-02-04T10:26:14;102818.84;;;14.54;100.00
32324;BME280;25666;44.350;9.222;2024-02-04T10:28:40;102808.81;;;14.70;100.00
32324;BME280;25666;44.350;9.222;2024-02-04T10:31:09;102810.97;;;14.64;100.00
32324;BME280;25666;44.350;9.222;2024-02-04T10:33:36;102815.41;;;14.74;100.00
32324;BME280;25666;44.350;9.222;2024-02-04T10:36:02;102804.72;;;14.84;100.00
32324;BME280;25666;44.350;9.222;2024-02-04T10:38:27;102798.94;;;14.98;100.00
32324;BME280;25666;44.350;9.222;2024-02-04T10:40:54;102796.63;;;15.09;100.00
32324;BME280;25666;44.350;9.222;2024-02-04T10:43:23;102804.69;;;15.10;100.00
32324;BME280;25666;44.350;9.222;2024-02-04T10:45:53;102797.78;;;15.08;100.00
32324;BME280;25666;44.350;9.222;2024-02-04T10:48:25;102796.78;;;14.95;100.00
32324;BME280;25666;44.350;9.222;2024-02-04T10:50:54;102794.13;;;15.07;100.00
32324;BME280;25666;44.350;9.222;2024-02-04T10:53:22;102785.88;;;15.19;100.00
32324;BME280;25666;44.350;9.222;2024-02-04T10:55:49;102788.69;;;15.28;100.00
32324;BME280;25666;44.350;9.222;2024-02-04T10:58:17;102783.91;;;15.28;100.00
32324;BME280;25666;44.350;9.222;2024-02-04T11:00:44;102770.84;;;15.41;100.00
32324;BME280;25666;44.350;9.222;2024-02-04T11:03:11;102776.09;;;15.42;100.00
32324;BME280;25666;44.350;9.222;2024-02-04T11:05:39;102774.94;;;15.43;100.00
32324;BME280;25666;44.350;9.222;2024-02-04T11:08:09;102771.78;;;15.45;100.00
32324;BME280;25666;44.350;9.222;2024-02-04T11:10:37;102766.69;;;15.38;100.00
32324;BME280;25666;44.350;9.222;2024-02-04T11:13:05;102762.91;;;15.51;100.00
32324;BME280;25666;44.350;9.222;2024-02-04T11:15:36;102754.81;;;15.50;100.00
32324;BME280;25666;44.350;9.222;2024-02-04T11:24:05;102755.97;;;15.40;100.00
32324;BME280;25666;44.350;9.222;2024-02-04T11:26:34;102756.13;;;15.44;100.00
32324;BME280;25666;44.350;9.222;2024-02-04T11:29:01;102753.31;;;15.44;100.00
32324;BME280;25666;44.350;9.222;2024-02-04T11:31:28;102748.03;;;15.51;100.00
32324;BME280;25666;44.350;9.222;2024-02-04T11:33:56;102742.72;;;15.58;100.00
32324;BME280;25666;44.350;9.222;2024-02-04T11:36:24;102739.72;;;15.63;100.00
32324;BME280;25666;44.350;9.222;2024-02-04T11:38:50;102737.44;;;15.65;100.00
32324;BME280;25666;44.350;9.222;2024-02-04T11:41:23;102739.38;;;15.73;100.00
32324;BME280;25666;44.350;9.222;2024-02-04T11:43:52;102740.88;;;15.71;100.00
32324;BME280;25666;44.350;9.222;2024-02-04T11:46:19;102737.72;;;15.72;100.00
32324;BME280;25666;44.350;9.222;2024-02-04T11:48:52;102730.47;;;15.71;100.00
32324;BME280;25666;44.350;9.222;2024-02-04T11:51:21;102721.38;;;15.74;100.00
32324;BME280;25666;44.350;9.222;2024-02-04T11:53:48;102721.16;;;15.79;100.00
32324;BME280;25666;44.350;9.222;2024-02-04T11:56:14;102724.78;;;15.80;100.00
32324;BME280;25666;44.350;9.222;2024-02-04T11:58:39;102737.63;;;15.89;100.00
32324;BME280;25666;44.350;9.222;2024-02-04T12:01:10;102723.94;;;15.88;100.00
32324;BME280;25666;44.350;9.222;2024-02-04T12:03:36;102725.94;;;15.87;100.00
32324;BME280;25666;44.350;9.222;2024-02-04T12:06:05;102725.03;;;15.95;100.00
32324;BME280;25666;44.350;9.222;2024-02-04T12:08:33;102721.09;;;15.96;100.00
32324;BME280;25666;44.350;9.222;2024-02-04T12:10:59;102716.28;;;15.97;100.00
32324;BME280;25666;44.350;9.222;2024-02-04T12:13:27;102717.25;;;16.01;100.00
32324;BME280;25666;44.350;9.222;2024-02-04T12:15:53;102714.09;;;16.02;100.00
32324;BME280;25666;44.350;9.222;2024-02-04T12:18:18;102702.94;;;16.15;100.00
32324;BME280;25666;44.350;9.222;2024-02-04T12:20:47;102691.03;;;16.18;100.00
32324;BME280;25666;44.350;9.222;2024-02-04T12:23:17;102692.88;;;16.14;100.00
32324;BME280;25666;44.350;9.222;2024-02-04T12:25:44;102682.16;;;16.07;100.00
32324;BME280;25666;44.350;9.222;2024-02-04T12:28:10;102687.44;;;15.88;100.00
32324;BME280;25666;44.350;9.222;2024-02-04T12:30:35;102685.69;;;15.75;100.00
32324;BME280;25666;44.350;9.222;2024-02-04T12:33:03;102688.09;;;15.56;100.00
32324;BME280;25666;44.350;9.222;2024-02-04T12:35:32;102690.25;;;15.41;100.00
32324;BME280;25666;44.350;9.222;2024-02-04T12:37:59;102692.97;;;15.21;100.00
32324;BME280;25666;44.350;9.222;2024-02-04T12:40:29;102691.50;;;15.15;100.00
32324;BME280;25666;44.350;9.222;2024-02-04T12:42:56;102690.72;;;15.06;100.00
32324;BME280;25666;44.350;9.222;2024-02-04T12:45:23;102690.22;;;14.95;100.00